sensor_id;sensor_type;location;lat;lon;timestamp;P1;durP1;ratioP1;P2;durP2;ratioP2
35126;SDS011;21300;52.006;5.798;2023-06-26T00:00:18;8.88;;;6.72;;
35126;SDS011;21300;52.006;5.798;2023-06-26T00:02:43;8.35;;;6.90;;
35126;SDS011;21300;52.006;5.798;2023-06-26T00:05:09;9.57;;;7.50;;
35126;SDS011;21300;52.006;5.798;2023-06-26T00:07:35;8.10;;;7.13;;
35126;SDS011;21300;52.006;5.798;2023-06-26T00:10:04;7.80;;;6.97;;
35126;SDS011;21300;52.006;5.798;2023-06-26T00:12:30;9.70;;;7.00;;
35126;SDS011;21300;52.006;5.798;2023-06-26T00:14:56;8.43;;;7.10;;
35126;SDS011;21300;52.006;5.798;2023-06-26T00:17:22;8.90;;;7.40;;
35126;SDS011;21300;52.006;5.798;2023-06-26T00:19:48;7.95;;;7.25;;
35126;SDS011;21300;52.006;5.798;2023-06-26T00:22:14;8.35;;;7.55;;
35126;SDS011;21300;52.006;5.798;2023-06-26T00:24:40;8.35;;;7.55;;
35126;SDS011;21300;52.006;5.798;2023-06-26T00:27:05;10.07;;;7.60;;
35126;SDS011;21300;52.006;5.798;2023-06-26T00:29:31;8.82;;;7.43;;
35126;SDS011;21300;52.006;5.798;2023-06-26T00:31:57;8.18;;;7.30;;
35126;SDS011;21300;52.006;5.798;2023-06-26T00:34:22;9.68;;;7.18;;
35126;SDS011;21300;52.006;5.798;2023-06-26T00:36:48;10.20;;;7.57;;
35126;SDS011;21300;52.006;5.798;2023-06-26T00:39:13;7.93;;;7.15;;
35126;SDS011;21300;52.006;5.798;2023-06-26T00:41:40;8.80;;;7.90;;
35126;SDS011;21300;52.006;5.798;2023-06-26T00:44:06;9.57;;;8.57;;
35126;SDS011;21300;52.006;5.798;2023-06-26T00:46:32;7.97;;;7.15;;
35126;SDS011;21300;52.006;5.798;2023-06-26T00:48:59;10.27;;;8.07;;
35126;SDS011;21300;52.006;5.798;2023-06-26T00:51:27;8.40;;;7.50;;
35126;SDS011;21300;52.006;5.798;2023-06-26T00:53:54;10.35;;;8.38;;
35126;SDS011;21300;52.006;5.798;2023-06-26T00:56:20;12.98;;;8.45;;
35126;SDS011;21300;52.006;5.798;2023-06-26T00:58:45;11.85;;;9.07;;
35126;SDS011;21300;52.006;5.798;2023-06-26T01:01:12;10.35;;;8.02;;
35126;SDS011;21300;52.006;5.798;2023-06-26T01:03:45;11.10;;;9.18;;
35126;SDS011;21300;52.006;5.798;2023-06-26T01:06:16;9.75;;;8.60;;
35126;SDS011;21300;52.006;5.798;2023-06-26T01:08:43;10.43;;;9.23;;
35126;SDS011;21300;52.006;5.798;2023-06-26T01:11:09;11.63;;;8.05;;
35126;SDS011;21300;52.006;5.798;2023-06-26T01:13:35;9.15;;;8.23;;
35126;SDS011;21300;52.006;5.798;2023-06-26T01:16:03;8.93;;;8.02;;
35126;SDS011;21300;52.006;5.798;2023-06-26T01:18:30;11.77;;;8.43;;
35126;SDS011;21300;52.006;5.798;2023-06-26T01:20:57;9.15;;;8.25;;
35126;SDS011;21300;52.006;5.798;2023-06-26T01:23:35;10.95;;;7.70;;
35126;SDS011;21300;52.006;5.798;2023-06-26T01:26:11;9.25;;;7.90;;
35126;SDS011;21300;52.006;5.798;2023-06-26T01:28:41;9.73;;;8.65;;
35126;SDS011;21300;52.006;5.798;2023-06-26T01:31:08;9.77;;;8.50;;
35126;SDS011;21300;52.006;5.798;2023-06-26T01:33:35;9.40;;;8.40;;
35126;SDS011;21300;52.006;5.798;2023-06-26T01:36:02;9.25;;;8.35;;
35126;SDS011;21300;52.006;5.798;2023-06-26T01:38:28;12.35;;;8.98;;
35126;SDS011;21300;52.006;5.798;2023-06-26T01:40:54;11.77;;;10.43;;
35126;SDS011;21300;52.006;5.798;2023-06-26T01:46:24;11.20;;;10.10;;
35126;SDS011;21300;52.006;5.798;2023-06-26T01:51:45;11.43;;;10.23;;
35126;SDS011;21300;52.006;5.798;2023-06-26T01:54:17;11.93;;;9.30;;
35126;SDS011;21300;52.006;5.798;2023-06-26T01:56:47;10.00;;;8.90;;
35126;SDS011;21300;52.006;5.798;2023-06-26T01:59:15;10.88;;;8.75;;
35126;SDS011;21300;52.006;5.798;2023-06-26T02:01:43;12.18;;;8.35;;
35126;SDS011;21300;52.006;5.798;2023-06-26T02:04:08;9.00;;;7.82;;
35126;SDS011;21300;52.006;5.798;2023-06-26T02:06:34;7.80;;;6.93;;
35126;SDS011;21300;52.006;5.798;2023-06-26T02:08:59;8.00;;;6.80;;
35126;SDS011;21300;52.006;5.798;2023-06-26T02:11:25;7.18;;;6.20;;
35126;SDS011;21300;52.006;5.798;2023-06-26T02:13:51;7.15;;;5.18;;
35126;SDS011;21300;52.006;5.798;2023-06-26T02:16:16;8.32;;;5.47;;
35126;SDS011;21300;52.006;5.798;2023-06-26T02:18:42;7.80;;;4.97;;
35126;SDS011;21300;52.006;5.798;2023-06-26T02:21:08;8.68;;;4.80;;
35126;SDS011;21300;52.006;5.798;2023-06-26T02:23:34;7.50;;;4.88;;
35126;SDS011;21300;52.006;5.798;2023-06-26T02:26:00;7.88;;;4.95;;
35126;SDS011;21300;52.006;5.798;2023-06-26T02:28:26;9.80;;;5.18;;
35126;SDS011;21300;52.006;5.798;2023-06-26T02:30:51;9.98;;;4.55;;
35126;SDS011;21300;52.006;5.798;2023-06-26T02:33:17;7.55;;;5.05;;
35126;SDS011;21300;52.006;5.798;2023-06-26T02:35:42;6.57;;;4.90;;
35126;SDS011;21300;52.006;5.798;2023-06-26T02:38:08;6.50;;;4.78;;
35126;SDS011;21300;52.006;5.798;2023-06-26T02:40:34;13.90;;;5.13;;
35126;SDS011;21300;52.006;5.798;2023-06-26T02:43:00;6.22;;;4.13;;
35126;SDS011;21300;52.006;5.798;2023-06-26T02:45:25;10.15;;;4.50;;
35126;SDS011;21300;52.006;5.798;2023-06-26T02:47:51;7.75;;;4.13;;
35126;SDS011;21300;52.006;5.798;2023-06-26T02:50:16;8.10;;;4.18;;
35126;SDS011;21300;52.006;5.798;2023-06-26T02:52:42;9.82;;;4.57;;
35126;SDS011;21300;52.006;5.798;2023-06-26T02:55:07;8.80;;;5.20;;
35126;SDS011;21300;52.006;5.798;2023-06-26T02:57:33;9.20;;;4.55;;
35126;SDS011;21300;52.006;5.798;2023-06-26T02:59:58;8.85;;;4.32;;
35126;SDS011;21300;52.006;5.798;2023-06-26T03:02:24;5.63;;;4.18;;
35126;SDS011;21300;52.006;5.798;2023-06-26T03:04:50;7.28;;;4.80;;
35126;SDS011;21300;52.006;5.798;2023-06-26T03:07:16;6.28;;;4.38;;
35126;SDS011;21300;52.006;5.798;2023-06-26T03:09:42;8.45;;;4.13;;
35126;SDS011;21300;52.006;5.798;2023-06-26T03:12:07;7.80;;;4.97;;
35126;SDS011;21300;52.006;5.798;2023-06-26T03:14:34;11.48;;;4.50;;
35126;SDS011;21300;52.006;5.798;2023-06-26T03:17:00;7.40;;;4.22;;
35126;SDS011;21300;52.006;5.798;2023-06-26T03:19:28;10.10;;;4.70;;
35126;SDS011;21300;52.006;5.798;2023-06-26T03:21:54;6.65;;;4.00;;
35126;SDS011;21300;52.006;5.798;2023-06-26T03:24:20;8.82;;;4.47;;
35126;SDS011;21300;52.006;5.798;2023-06-26T03:26:45;9.55;;;4.30;;
35126;SDS011;21300;52.006;5.798;2023-06-26T03:29:11;10.00;;;4.38;;
35126;SDS011;21300;52.006;5.798;2023-06-26T03:31:37;9.27;;;4.22;;
35126;SDS011;21300;52.006;5.798;2023-06-26T03:34:02;9.90;;;4.38;;
35126;SDS011;21300;52.006;5.798;2023-06-26T03:36:28;8.98;;;4.45;;
35126;SDS011;21300;52.006;5.798;2023-06-26T03:38:53;10.95;;;4.50;;
35126;SDS011;21300;52.006;5.798;2023-06-26T03:41:21;10.85;;;4.93;;
35126;SDS011;21300;52.006;5.798;2023-06-26T03:43:48;9.57;;;4.53;;
35126;SDS011;21300;52.006;5.798;2023-06-26T03:46:14;10.27;;;4.40;;
35126;SDS011;21300;52.006;5.798;2023-06-26T03:48:39;11.82;;;4.78;;
35126;SDS011;21300;52.006;5.798;2023-06-26T03:51:05;13.57;;;5.10;;
35126;SDS011;21300;52.006;5.798;2023-06-26T03:53:32;13.18;;;5.18;;
35126;SDS011;21300;52.006;5.798;2023-06-26T03:55:57;11.10;;;5.30;;
35126;SDS011;21300;52.006;5.798;2023-06-26T03:58:23;12.32;;;4.80;;
35126;SDS011;21300;52.006;5.798;2023-06-26T04:00:50;9.10;;;4.88;;
35126;SDS011;21300;52.006;5.798;2023-06-26T04:03:16;13.13;;;4.65;;
35126;SDS011;21300;52.006;5.798;2023-06-26T04:05:41;10.48;;;4.93;;
35126;SDS011;21300;52.006;5.798;2023-06-26T04:08:07;12.93;;;5.20;;
35126;SDS011;21300;52.006;5.798;2023-06-26T04:10:33;15.70;;;5.10;;
35126;SDS011;21300;52.006;5.798;2023-06-26T04:12:59;11.70;;;4.80;;
35126;SDS011;21300;52.006;5.798;2023-06-26T04:15:24;12.70;;;4.90;;
35126;SDS011;21300;52.006;5.798;2023-06-26T04:17:50;13.43;;;5.35;;
35126;SDS011;21300;52.006;5.798;2023-06-26T04:20:15;13.77;;;5.50;;
35126;SDS011;21300;52.006;5.798;2023-06-26T04:22:41;14.68;;;4.93;;
35126;SDS011;21300;52.006;5.798;2023-06-26T04:25:07;12.75;;;4.95;;
35126;SDS011;21300;52.006;5.798;2023-06-26T04:27:33;14.13;;;5.18;;
35126;SDS011;21300;52.006;5.798;2023-06-26T04:29:59;13.70;;;5.53;;
35126;SDS011;21300;52.006;5.798;2023-06-26T04:32:24;14.38;;;5.40;;
35126;SDS011;21300;52.006;5.798;2023-06-26T04:34:50;12.52;;;5.15;;
35126;SDS011;21300;52.006;5.798;2023-06-26T04:37:16;13.43;;;5.55;;
35126;SDS011;21300;52.006;5.798;2023-06-26T04:39:42;17.30;;;5.68;;
35126;SDS011;21300;52.006;5.798;2023-06-26T04:42:08;12.05;;;4.78;;
35126;SDS011;21300;52.006;5.798;2023-06-26T04:44:34;13.55;;;5.20;;
35126;SDS011;21300;52.006;5.798;2023-06-26T04:47:00;13.13;;;5.63;;
35126;SDS011;21300;52.006;5.798;2023-06-26T04:49:25;20.08;;;6.10;;
35126;SDS011;21300;52.006;5.798;2023-06-26T04:51:52;14.48;;;5.53;;
35126;SDS011;21300;52.006;5.798;2023-06-26T04:54:19;13.45;;;5.82;;
35126;SDS011;21300;52.006;5.798;2023-06-26T04:56:44;16.52;;;5.93;;
35126;SDS011;21300;52.006;5.798;2023-06-26T04:59:12;15.05;;;5.20;;
35126;SDS011;21300;52.006;5.798;2023-06-26T05:01:38;13.25;;;5.40;;
35126;SDS011;21300;52.006;5.798;2023-06-26T05:04:04;15.65;;;5.50;;
35126;SDS011;21300;52.006;5.798;2023-06-26T05:06:30;14.30;;;5.50;;
35126;SDS011;21300;52.006;5.798;2023-06-26T05:08:56;12.35;;;5.35;;
35126;SDS011;21300;52.006;5.798;2023-06-26T05:11:22;16.55;;;5.18;;
35126;SDS011;21300;52.006;5.798;2023-06-26T05:13:49;13.88;;;5.55;;
35126;SDS011;21300;52.006;5.798;2023-06-26T05:16:15;14.70;;;5.05;;
35126;SDS011;21300;52.006;5.798;2023-06-26T05:18:40;11.27;;;5.30;;
35126;SDS011;21300;52.006;5.798;2023-06-26T05:21:06;12.75;;;4.55;;
35126;SDS011;21300;52.006;5.798;2023-06-26T05:23:32;12.55;;;4.88;;
35126;SDS011;21300;52.006;5.798;2023-06-26T05:25:59;15.40;;;5.25;;
35126;SDS011;21300;52.006;5.798;2023-06-26T05:28:28;18.45;;;5.38;;
35126;SDS011;21300;52.006;5.798;2023-06-26T05:30:56;15.65;;;4.95;;
35126;SDS011;21300;52.006;5.798;2023-06-26T05:33:25;13.55;;;5.03;;
35126;SDS011;21300;52.006;5.798;2023-06-26T05:35:52;10.60;;;4.65;;
35126;SDS011;21300;52.006;5.798;2023-06-26T05:38:18;13.95;;;4.90;;
35126;SDS011;21300;52.006;5.798;2023-06-26T05:40:44;13.30;;;4.60;;
35126;SDS011;21300;52.006;5.798;2023-06-26T05:43:10;10.23;;;4.35;;
35126;SDS011;21300;52.006;5.798;2023-06-26T05:45:36;10.55;;;4.30;;
35126;SDS011;21300;52.006;5.798;2023-06-26T05:48:02;9.75;;;4.70;;
35126;SDS011;21300;52.006;5.798;2023-06-26T05:50:28;9.50;;;4.18;;
35126;SDS011;21300;52.006;5.798;2023-06-26T05:52:54;10.70;;;3.92;;
35126;SDS011;21300;52.006;5.798;2023-06-26T05:55:20;10.50;;;4.05;;
35126;SDS011;21300;52.006;5.798;2023-06-26T05:57:46;8.23;;;3.58;;
35126;SDS011;21300;52.006;5.798;2023-06-26T06:00:12;7.43;;;3.72;;
35126;SDS011;21300;52.006;5.798;2023-06-26T06:02:39;7.50;;;3.75;;
35126;SDS011;21300;52.006;5.798;2023-06-26T06:05:07;6.95;;;3.17;;
35126;SDS011;21300;52.006;5.798;2023-06-26T06:07:33;9.55;;;3.47;;
35126;SDS011;21300;52.006;5.798;2023-06-26T06:09:59;9.00;;;3.63;;
35126;SDS011;21300;52.006;5.798;2023-06-26T06:12:26;5.85;;;3.53;;
35126;SDS011;21300;52.006;5.798;2023-06-26T06:14:52;6.40;;;3.05;;
35126;SDS011;21300;52.006;5.798;2023-06-26T06:17:19;8.52;;;3.30;;
35126;SDS011;21300;52.006;5.798;2023-06-26T06:19:45;7.10;;;2.92;;
35126;SDS011;21300;52.006;5.798;2023-06-26T06:22:10;8.43;;;2.90;;
35126;SDS011;21300;52.006;5.798;2023-06-26T06:24:36;6.70;;;2.70;;
35126;SDS011;21300;52.006;5.798;2023-06-26T06:27:02;7.07;;;3.03;;
35126;SDS011;21300;52.006;5.798;2023-06-26T06:29:28;4.90;;;2.67;;
35126;SDS011;21300;52.006;5.798;2023-06-26T06:31:53;5.70;;;2.53;;
35126;SDS011;21300;52.006;5.798;2023-06-26T06:34:19;7.03;;;3.15;;
35126;SDS011;21300;52.006;5.798;2023-06-26T06:36:45;4.88;;;2.85;;
35126;SDS011;21300;52.006;5.798;2023-06-26T06:39:10;4.65;;;2.50;;
35126;SDS011;21300;52.006;5.798;2023-06-26T06:41:36;5.93;;;2.75;;
35126;SDS011;21300;52.006;5.798;2023-06-26T06:44:02;5.75;;;2.58;;
35126;SDS011;21300;52.006;5.798;2023-06-26T06:46:27;9.40;;;2.95;;
35126;SDS011;21300;52.006;5.798;2023-06-26T06:48:53;7.95;;;3.08;;
35126;SDS011;21300;52.006;5.798;2023-06-26T06:51:19;5.50;;;2.55;;
35126;SDS011;21300;52.006;5.798;2023-06-26T06:53:44;4.50;;;2.50;;
35126;SDS011;21300;52.006;5.798;2023-06-26T06:56:10;4.82;;;2.63;;
35126;SDS011;21300;52.006;5.798;2023-06-26T06:58:35;6.22;;;2.42;;
35126;SDS011;21300;52.006;5.798;2023-06-26T07:01:01;6.43;;;2.60;;
35126;SDS011;21300;52.006;5.798;2023-06-26T07:03:28;5.22;;;2.58;;
35126;SDS011;21300;52.006;5.798;2023-06-26T07:05:53;5.88;;;2.47;;
35126;SDS011;21300;52.006;5.798;2023-06-26T07:08:20;6.03;;;2.63;;
35126;SDS011;21300;52.006;5.798;2023-06-26T07:10:46;6.43;;;2.60;;
35126;SDS011;21300;52.006;5.798;2023-06-26T07:13:11;6.57;;;2.67;;
35126;SDS011;21300;52.006;5.798;2023-06-26T07:15:37;7.40;;;2.78;;
35126;SDS011;21300;52.006;5.798;2023-06-26T07:18:02;6.47;;;2.35;;
35126;SDS011;21300;52.006;5.798;2023-06-26T07:20:28;5.45;;;2.42;;
35126;SDS011;21300;52.006;5.798;2023-06-26T07:22:53;5.68;;;2.78;;
35126;SDS011;21300;52.006;5.798;2023-06-26T07:25:19;6.70;;;2.65;;
35126;SDS011;21300;52.006;5.798;2023-06-26T07:27:44;5.15;;;2.60;;
35126;SDS011;21300;52.006;5.798;2023-06-26T07:30:10;6.53;;;2.17;;
35126;SDS011;21300;52.006;5.798;2023-06-26T07:32:36;5.28;;;2.70;;
35126;SDS011;21300;52.006;5.798;2023-06-26T07:35:03;6.63;;;2.63;;
35126;SDS011;21300;52.006;5.798;2023-06-26T07:37:30;7.22;;;2.85;;
35126;SDS011;21300;52.006;5.798;2023-06-26T07:39:55;5.57;;;2.70;;
35126;SDS011;21300;52.006;5.798;2023-06-26T07:42:22;5.07;;;2.90;;
35126;SDS011;21300;52.006;5.798;2023-06-26T07:44:48;6.55;;;2.45;;
35126;SDS011;21300;52.006;5.798;2023-06-26T07:47:13;5.70;;;2.78;;
35126;SDS011;21300;52.006;5.798;2023-06-26T07:49:40;4.38;;;2.80;;
35126;SDS011;21300;52.006;5.798;2023-06-26T07:52:05;6.13;;;2.90;;
35126;SDS011;21300;52.006;5.798;2023-06-26T07:54:31;5.00;;;2.47;;
35126;SDS011;21300;52.006;5.798;2023-06-26T07:56:58;4.60;;;2.47;;
35126;SDS011;21300;52.006;5.798;2023-06-26T07:59:25;5.50;;;2.60;;
35126;SDS011;21300;52.006;5.798;2023-06-26T08:01:52;4.78;;;2.83;;
35126;SDS011;21300;52.006;5.798;2023-06-26T08:04:20;5.25;;;2.40;;
35126;SDS011;21300;52.006;5.798;2023-06-26T08:06:50;6.10;;;2.42;;
35126;SDS011;21300;52.006;5.798;2023-06-26T08:09:17;3.33;;;2.10;;
35126;SDS011;21300;52.006;5.798;2023-06-26T08:11:44;5.35;;;2.45;;
35126;SDS011;21300;52.006;5.798;2023-06-26T08:14:10;5.20;;;2.90;;
35126;SDS011;21300;52.006;5.798;2023-06-26T08:16:37;5.50;;;2.58;;
35126;SDS011;21300;52.006;5.798;2023-06-26T08:19:03;10.07;;;2.60;;
35126;SDS011;21300;52.006;5.798;2023-06-26T08:21:29;4.53;;;2.67;;
35126;SDS011;21300;52.006;5.798;2023-06-26T08:23:54;5.72;;;2.70;;
35126;SDS011;21300;52.006;5.798;2023-06-26T08:26:20;6.82;;;2.92;;
35126;SDS011;21300;52.006;5.798;2023-06-26T08:28:45;4.82;;;2.67;;
35126;SDS011;21300;52.006;5.798;2023-06-26T08:31:11;7.60;;;2.80;;
35126;SDS011;21300;52.006;5.798;2023-06-26T08:33:37;6.30;;;2.85;;
35126;SDS011;21300;52.006;5.798;2023-06-26T08:36:02;8.00;;;3.20;;
35126;SDS011;21300;52.006;5.798;2023-06-26T08:38:28;7.03;;;2.40;;
35126;SDS011;21300;52.006;5.798;2023-06-26T08:40:54;5.38;;;2.58;;
35126;SDS011;21300;52.006;5.798;2023-06-26T08:43:19;4.35;;;2.33;;
35126;SDS011;21300;52.006;5.798;2023-06-26T08:45:47;7.13;;;3.13;;
35126;SDS011;21300;52.006;5.798;2023-06-26T08:48:16;6.78;;;2.95;;
35126;SDS011;21300;52.006;5.798;2023-06-26T08:50:43;8.55;;;2.60;;
35126;SDS011;21300;52.006;5.798;2023-06-26T08:56:12;6.55;;;2.70;;
35126;SDS011;21300;52.006;5.798;2023-06-26T08:58:42;5.03;;;2.30;;
35126;SDS011;21300;52.006;5.798;2023-06-26T09:01:07;6.43;;;2.13;;
35126;SDS011;21300;52.006;5.798;2023-06-26T09:03:33;9.60;;;2.40;;
35126;SDS011;21300;52.006;5.798;2023-06-26T09:06:00;5.18;;;2.03;;
35126;SDS011;21300;52.006;5.798;2023-06-26T09:08:26;5.10;;;2.00;;
35126;SDS011;21300;52.006;5.798;2023-06-26T09:10:52;5.85;;;2.15;;
35126;SDS011;21300;52.006;5.798;2023-06-26T09:13:18;5.65;;;2.10;;
35126;SDS011;21300;52.006;5.798;2023-06-26T09:15:44;4.25;;;2.20;;
35126;SDS011;21300;52.006;5.798;2023-06-26T09:18:11;4.80;;;1.90;;
35126;SDS011;21300;52.006;5.798;2023-06-26T09:20:36;3.75;;;1.77;;
35126;SDS011;21300;52.006;5.798;2023-06-26T09:23:02;5.50;;;1.85;;
35126;SDS011;21300;52.006;5.798;2023-06-26T09:25:29;6.10;;;1.50;;
35126;SDS011;21300;52.006;5.798;2023-06-26T09:27:55;7.03;;;1.35;;
35126;SDS011;21300;52.006;5.798;2023-06-26T09:30:21;5.53;;;1.40;;
35126;SDS011;21300;52.006;5.798;2023-06-26T09:32:47;7.03;;;1.60;;
35126;SDS011;21300;52.006;5.798;2023-06-26T09:35:15;3.67;;;1.30;;
35126;SDS011;21300;52.006;5.798;2023-06-26T09:37:41;4.82;;;1.42;;
35126;SDS011;21300;52.006;5.798;2023-06-26T09:40:08;3.50;;;1.20;;
35126;SDS011;21300;52.006;5.798;2023-06-26T09:42:34;4.18;;;1.40;;
35126;SDS011;21300;52.006;5.798;2023-06-26T09:45:01;5.60;;;1.30;;
35126;SDS011;21300;52.006;5.798;2023-06-26T09:47:29;5.97;;;2.05;;
35126;SDS011;21300;52.006;5.798;2023-06-26T09:49:56;4.85;;;1.33;;
35126;SDS011;21300;52.006;5.798;2023-06-26T09:52:25;4.15;;;1.02;;
35126;SDS011;21300;52.006;5.798;2023-06-26T09:54:52;3.90;;;1.13;;
35126;SDS011;21300;52.006;5.798;2023-06-26T09:57:34;4.85;;;1.30;;
35126;SDS011;21300;52.006;5.798;2023-06-26T10:00:00;4.05;;;1.30;;
35126;SDS011;21300;52.006;5.798;2023-06-26T10:02:27;6.30;;;1.30;;
35126;SDS011;21300;52.006;5.798;2023-06-26T10:04:53;4.80;;;1.23;;
35126;SDS011;21300;52.006;5.798;2023-06-26T10:07:18;4.10;;;0.90;;
35126;SDS011;21300;52.006;5.798;2023-06-26T10:09:45;3.65;;;1.00;;
35126;SDS011;21300;52.006;5.798;2023-06-26T10:12:23;3.78;;;1.35;;
35126;SDS011;21300;52.006;5.798;2023-06-26T10:14:53;3.70;;;0.90;;
35126;SDS011;21300;52.006;5.798;2023-06-26T10:17:20;6.18;;;1.67;;
35126;SDS011;21300;52.006;5.798;2023-06-26T10:19:49;5.40;;;1.20;;
35126;SDS011;21300;52.006;5.798;2023-06-26T10:22:18;5.15;;;1.08;;
35126;SDS011;21300;52.006;5.798;2023-06-26T10:24:47;2.95;;;0.93;;
35126;SDS011;21300;52.006;5.798;2023-06-26T10:29:41;8.30;;;1.30;;
35126;SDS011;21300;52.006;5.798;2023-06-26T10:32:10;4.05;;;1.20;;
35126;SDS011;21300;52.006;5.798;2023-06-26T10:34:37;2.80;;;1.00;;
35126;SDS011;21300;52.006;5.798;2023-06-26T10:37:03;3.60;;;1.27;;
35126;SDS011;21300;52.006;5.798;2023-06-26T10:39:51;3.28;;;1.17;;
35126;SDS011;21300;52.006;5.798;2023-06-26T10:42:20;3.78;;;1.13;;
35126;SDS011;21300;52.006;5.798;2023-06-26T10:47:39;1.92;;;0.90;;
35126;SDS011;21300;52.006;5.798;2023-06-26T10:52:45;2.72;;;0.98;;
35126;SDS011;21300;52.006;5.798;2023-06-26T10:55:11;5.25;;;1.00;;
35126;SDS011;21300;52.006;5.798;2023-06-26T10:57:38;3.88;;;1.00;;
35126;SDS011;21300;52.006;5.798;2023-06-26T11:00:10;1.50;;;0.90;;
35126;SDS011;21300;52.006;5.798;2023-06-26T11:02:52;2.53;;;1.38;;
35126;SDS011;21300;52.006;5.798;2023-06-26T11:05:28;4.00;;;1.20;;
35126;SDS011;21300;52.006;5.798;2023-06-26T11:10:29;2.60;;;1.20;;
35126;SDS011;21300;52.006;5.798;2023-06-26T11:12:54;3.92;;;1.33;;
35126;SDS011;21300;52.006;5.798;2023-06-26T11:15:24;4.55;;;1.10;;
35126;SDS011;21300;52.006;5.798;2023-06-26T11:17:51;3.75;;;0.80;;
35126;SDS011;21300;52.006;5.798;2023-06-26T11:20:18;2.67;;;0.88;;
35126;SDS011;21300;52.006;5.798;2023-06-26T11:22:43;2.80;;;0.75;;
35126;SDS011;21300;52.006;5.798;2023-06-26T11:25:10;4.75;;;1.00;;
35126;SDS011;21300;52.006;5.798;2023-06-26T11:27:39;3.92;;;0.90;;
35126;SDS011;21300;52.006;5.798;2023-06-26T11:30:06;2.33;;;0.82;;
35126;SDS011;21300;52.006;5.798;2023-06-26T11:32:38;2.90;;;1.05;;
35126;SDS011;21300;52.006;5.798;2023-06-26T11:35:04;2.58;;;0.77;;
35126;SDS011;21300;52.006;5.798;2023-06-26T11:37:31;3.28;;;1.20;;
35126;SDS011;21300;52.006;5.798;2023-06-26T11:39:57;2.35;;;0.85;;
35126;SDS011;21300;52.006;5.798;2023-06-26T11:42:23;2.25;;;1.00;;
35126;SDS011;21300;52.006;5.798;2023-06-26T11:44:50;2.35;;;1.17;;
35126;SDS011;21300;52.006;5.798;2023-06-26T11:47:17;3.63;;;0.80;;
35126;SDS011;21300;52.006;5.798;2023-06-26T11:49:44;5.50;;;1.30;;
35126;SDS011;21300;52.006;5.798;2023-06-26T11:52:11;3.13;;;0.93;;
35126;SDS011;21300;52.006;5.798;2023-06-26T11:54:38;2.67;;;1.00;;
35126;SDS011;21300;52.006;5.798;2023-06-26T11:57:04;5.40;;;1.00;;
35126;SDS011;21300;52.006;5.798;2023-06-26T11:59:33;3.30;;;1.20;;
35126;SDS011;21300;52.006;5.798;2023-06-26T12:02:00;3.25;;;1.35;;
35126;SDS011;21300;52.006;5.798;2023-06-26T12:04:30;4.57;;;1.30;;
35126;SDS011;21300;52.006;5.798;2023-06-26T12:06:56;2.15;;;0.90;;
35126;SDS011;21300;52.006;5.798;2023-06-26T12:09:22;1.88;;;1.10;;
35126;SDS011;21300;52.006;5.798;2023-06-26T12:11:51;3.78;;;1.00;;
35126;SDS011;21300;52.006;5.798;2023-06-26T12:14:19;2.97;;;1.25;;
35126;SDS011;21300;52.006;5.798;2023-06-26T12:16:47;2.30;;;1.00;;
35126;SDS011;21300;52.006;5.798;2023-06-26T12:19:13;2.47;;;0.80;;
35126;SDS011;21300;52.006;5.798;2023-06-26T12:24:15;3.17;;;1.02;;
35126;SDS011;21300;52.006;5.798;2023-06-26T12:26:42;2.72;;;1.15;;
35126;SDS011;21300;52.006;5.798;2023-06-26T12:29:09;2.08;;;0.80;;
35126;SDS011;21300;52.006;5.798;2023-06-26T12:31:43;6.40;;;1.20;;
35126;SDS011;21300;52.006;5.798;2023-06-26T12:34:11;4.35;;;1.10;;
35126;SDS011;21300;52.006;5.798;2023-06-26T12:36:43;3.33;;;1.45;;
35126;SDS011;21300;52.006;5.798;2023-06-26T12:39:10;3.22;;;1.17;;
35126;SDS011;21300;52.006;5.798;2023-06-26T12:41:51;3.10;;;1.25;;
35126;SDS011;21300;52.006;5.798;2023-06-26T12:44:22;1.88;;;0.80;;
35126;SDS011;21300;52.006;5.798;2023-06-26T12:46:58;3.30;;;0.90;;
35126;SDS011;21300;52.006;5.798;2023-06-26T12:49:28;2.45;;;0.90;;
35126;SDS011;21300;52.006;5.798;2023-06-26T12:51:55;4.03;;;1.02;;
35126;SDS011;21300;52.006;5.798;2023-06-26T12:54:21;5.88;;;1.17;;
35126;SDS011;21300;52.006;5.798;2023-06-26T12:56:46;3.38;;;1.15;;
35126;SDS011;21300;52.006;5.798;2023-06-26T12:59:12;2.92;;;0.98;;
35126;SDS011;21300;52.006;5.798;2023-06-26T13:01:38;4.78;;;0.95;;
35126;SDS011;21300;52.006;5.798;2023-06-26T13:04:03;2.40;;;0.88;;
35126;SDS011;21300;52.006;5.798;2023-06-26T13:06:30;2.33;;;0.80;;
35126;SDS011;21300;52.006;5.798;2023-06-26T13:08:56;4.13;;;0.90;;
35126;SDS011;21300;52.006;5.798;2023-06-26T13:11:22;2.00;;;1.08;;
35126;SDS011;21300;52.006;5.798;2023-06-26T13:13:48;3.10;;;0.80;;
35126;SDS011;21300;52.006;5.798;2023-06-26T13:16:13;2.10;;;1.00;;
35126;SDS011;21300;52.006;5.798;2023-06-26T13:18:39;2.65;;;0.60;;
35126;SDS011;21300;52.006;5.798;2023-06-26T13:21:05;2.47;;;0.93;;
35126;SDS011;21300;52.006;5.798;2023-06-26T13:23:30;2.70;;;1.02;;
35126;SDS011;21300;52.006;5.798;2023-06-26T13:25:56;2.83;;;0.73;;
35126;SDS011;21300;52.006;5.798;2023-06-26T13:28:21;4.88;;;1.23;;
35126;SDS011;21300;52.006;5.798;2023-06-26T13:30:47;2.00;;;0.77;;
35126;SDS011;21300;52.006;5.798;2023-06-26T13:33:13;4.65;;;0.70;;
35126;SDS011;21300;52.006;5.798;2023-06-26T13:35:38;2.25;;;0.70;;
35126;SDS011;21300;52.006;5.798;2023-06-26T13:38:05;3.13;;;1.00;;
35126;SDS011;21300;52.006;5.798;2023-06-26T13:40:31;3.03;;;1.05;;
35126;SDS011;21300;52.006;5.798;2023-06-26T13:42:56;3.70;;;1.35;;
35126;SDS011;21300;52.006;5.798;2023-06-26T13:45:22;3.67;;;0.90;;
35126;SDS011;21300;52.006;5.798;2023-06-26T13:47:48;4.43;;;0.80;;
35126;SDS011;21300;52.006;5.798;2023-06-26T13:50:14;4.72;;;0.82;;
35126;SDS011;21300;52.006;5.798;2023-06-26T13:52:39;4.15;;;0.90;;
35126;SDS011;21300;52.006;5.798;2023-06-26T13:55:05;2.20;;;0.73;;
35126;SDS011;21300;52.006;5.798;2023-06-26T13:57:31;2.63;;;0.75;;
35126;SDS011;21300;52.006;5.798;2023-06-26T13:59:57;1.92;;;0.70;;
35126;SDS011;21300;52.006;5.798;2023-06-26T14:02:22;3.00;;;0.80;;
35126;SDS011;21300;52.006;5.798;2023-06-26T14:04:48;3.47;;;0.98;;
35126;SDS011;21300;52.006;5.798;2023-06-26T14:07:14;5.95;;;0.88;;
35126;SDS011;21300;52.006;5.798;2023-06-26T14:09:40;3.45;;;0.73;;
35126;SDS011;21300;52.006;5.798;2023-06-26T14:12:05;4.53;;;0.70;;
35126;SDS011;21300;52.006;5.798;2023-06-26T14:14:32;3.67;;;0.77;;
35126;SDS011;21300;52.006;5.798;2023-06-26T14:16:58;1.52;;;0.70;;
35126;SDS011;21300;52.006;5.798;2023-06-26T14:19:24;1.98;;;0.68;;
35126;SDS011;21300;52.006;5.798;2023-06-26T14:21:51;1.50;;;0.60;;
35126;SDS011;21300;52.006;5.798;2023-06-26T14:24:17;2.88;;;0.93;;
35126;SDS011;21300;52.006;5.798;2023-06-26T14:26:42;3.60;;;0.90;;
35126;SDS011;21300;52.006;5.798;2023-06-26T14:29:08;2.50;;;0.60;;
35126;SDS011;21300;52.006;5.798;2023-06-26T14:31:33;3.47;;;0.70;;
35126;SDS011;21300;52.006;5.798;2023-06-26T14:33:59;3.10;;;0.80;;
35126;SDS011;21300;52.006;5.798;2023-06-26T14:36:25;2.88;;;0.93;;
35126;SDS011;21300;52.006;5.798;2023-06-26T14:38:52;5.40;;;0.90;;
35126;SDS011;21300;52.006;5.798;2023-06-26T14:41:17;3.08;;;0.90;;
35126;SDS011;21300;52.006;5.798;2023-06-26T14:43:43;4.80;;;1.00;;
35126;SDS011;21300;52.006;5.798;2023-06-26T14:46:10;3.60;;;0.90;;
35126;SDS011;21300;52.006;5.798;2023-06-26T14:48:36;3.45;;;0.90;;
35126;SDS011;21300;52.006;5.798;2023-06-26T14:51:01;3.72;;;0.68;;
35126;SDS011;21300;52.006;5.798;2023-06-26T14:53:27;2.08;;;0.60;;
35126;SDS011;21300;52.006;5.798;2023-06-26T14:55:53;4.53;;;0.80;;
35126;SDS011;21300;52.006;5.798;2023-06-26T14:58:18;2.03;;;0.85;;
35126;SDS011;21300;52.006;5.798;2023-06-26T15:00:44;2.03;;;0.70;;
35126;SDS011;21300;52.006;5.798;2023-06-26T15:03:09;2.50;;;0.73;;